Time;durP1;ratioP1;P1;durP2;ratioP2;P2;SDS_P1;SDS_P2;PMS_P1;PMS_P2;Temp;Humidity;BMP_temperature;BMP_pressure;BME280_temperature;BME280_humidity;BME280_pressure;Samples;Min_cycle;Max_cycle;Signal;HPM_P1;HPM_P2
2022/02/05 00:01:53;;;;;;;80.27;44.70;;;;;;;-4.65;66.20;100358.47;1562317;89;21063;-59
2022/02/05 00:04:19;;;;;;;88.50;46.07;;;;;;;-4.63;65.46;100350.11;1655236;85;21079;-59
2022/02/05 00:06:51;;;;;;;84.00;45.90;;;;;;;-4.73;65.22;100358.92;1640330;86;21033;-60
2022/02/05 00:09:30;;;;;;;79.80;46.17;;;;;;;-4.85;65.45;100360.09;1660363;86;21039;-60
2022/02/05 00:14:35;;;;;;;77.57;44.40;;;;;;;-4.91;65.54;100359.98;1694841;83;21157;-59
2022/02/05 00:38:27;;;;;;;78.27;44.57;;;;;;;-4.99;66.09;100324.03;1692287;83;21021;-57
2022/02/05 00:40:58;;;;;;;80.83;45.70;;;;;;;-4.93;65.87;100315.88;1695248;83;21076;-58
2022/02/05 00:43:18;;;;;;;79.17;46.37;;;;;;;-4.85;65.69;100308.09;1692264;83;21088;-59
2022/02/05 00:45:55;;;;;;;75.03;40.10;;;;;;;-4.78;65.55;100304.20;1666381;83;21262;-59
2022/02/05 00:48:18;;;;;;;77.60;45.30;;;;;;;-4.76;65.28;100304.48;1643392;85;21154;-60
2022/02/05 00:50:52;;;;;;;72.23;39.73;;;;;;;-4.88;65.55;100302.59;1649267;85;20982;-59
2022/02/05 00:53:31;;;;;;;77.47;42.57;;;;;;;-4.99;66.10;100303.68;1652639;85;21066;-59
2022/02/05 00:56:05;;;;;;;82.33;45.17;;;;;;;-5.05;66.28;100302.27;1653723;83;20985;-61
2022/02/05 00:58:22;;;;;;;80.00;45.77;;;;;;;-5.09;66.51;100308.11;1678453;83;21039;-57
2022/02/05 01:00:48;;;;;;;85.12;44.77;;;;;;;-5.16;66.82;100296.86;1648098;85;21031;-58
2022/02/05 01:03:15;;;;;;;99.05;50.38;;;;;;;-5.21;67.07;100291.11;1653793;85;21078;-59
2022/02/05 01:05:42;;;;;;;78.35;45.03;;;;;;;-5.21;67.19;100296.31;1647572;86;21519;-58
2022/02/05 01:08:10;;;;;;;72.27;38.97;;;;;;;-5.17;67.37;100302.53;1648891;86;21235;-60
2022/02/05 01:10:37;;;;;;;78.03;45.00;;;;;;;-5.10;67.54;100296.53;1675925;83;21103;-60
2022/02/05 01:13:08;;;;;;;74.03;41.83;;;;;;;-5.03;67.39;100298.29;1691007;83;21583;-59
2022/02/05 01:15:45;;;;;;;65.77;37.90;;;;;;;-5.00;67.42;100294.22;1715782;83;21019;-59
2022/02/05 01:18:07;;;;;;;70.87;37.97;;;;;;;-4.91;67.26;100289.78;1688496;84;21027;-59
2022/02/05 01:23:11;;;;;;;51.63;31.70;;;;;;;-4.80;66.95;100286.53;1690624;83;21110;-59
2022/02/05 01:25:41;;;;;;;62.40;34.13;;;;;;;-4.79;66.73;100289.52;1672297;84;20936;-59
2022/02/05 01:28:19;;;;;;;49.17;31.80;;;;;;;-4.79;66.76;100289.05;1685941;84;21108;-58
2022/02/05 01:30:47;;;;;;;56.33;35.33;;;;;;;-4.78;66.89;100290.73;1690254;84;21015;-59
2022/02/05 01:35:53;;;;;;;53.42;31.52;;;;;;;-4.64;66.80;100282.09;1720733;83;21822;-58
2022/02/05 01:57:01;;;;;;;48.10;29.07;;;;;;;-4.47;66.07;100279.77;1698332;83;21052;-58
2022/02/05 01:59:36;;;;;;;47.87;28.33;;;;;;;-4.40;65.81;100277.64;1690549;85;21607;-58
2022/02/05 02:04:51;;;;;;;48.00;28.43;;;;;;;-4.30;64.94;100272.23;1718552;82;21539;-60
2022/02/05 02:10:39;;;;;;;40.00;25.13;;;;;;;-4.32;64.31;100271.49;1699198;82;21059;-57
2022/02/05 02:15:49;;;;;;;42.07;24.07;;;;;;;-4.31;64.49;100267.98;1684294;83;21558;-58
2022/02/05 02:31:23;;;;;;;36.33;20.37;;;;;;;-4.16;63.25;100264.89;1678823;84;21101;-58
2022/02/05 02:33:50;;;;;;;36.43;22.07;;;;;;;-4.17;63.07;100261.43;1691220;83;21039;-58
2022/02/05 02:36:33;;;;;;;34.90;20.73;;;;;;;-4.18;62.92;100271.93;1705009;83;21100;-58
2022/02/05 02:39:00;;;;;;;34.80;22.47;;;;;;;-4.18;62.82;100258.47;1695908;83;21061;-58
2022/02/05 02:41:28;;;;;;;36.47;21.23;;;;;;;-4.16;62.69;100270.09;1703183;83;21061;-58
2022/02/05 02:43:50;;;;;;;32.73;19.43;;;;;;;-4.17;62.64;100261.43;1694362;83;21076;-58
2022/02/05 02:46:17;;;;;;;35.70;20.37;;;;;;;-4.18;62.88;100253.27;1699375;83;21081;-58
2022/02/05 02:48:47;;;;;;;33.92;21.95;;;;;;;-4.14;62.87;100260.42;1698400;83;21432;-59
2022/02/05 02:59:04;;;;;;;32.97;19.60;;;;;;;-4.08;62.45;100239.20;1651434;86;21041;-59
2022/02/05 03:01:24;;;;;;;33.53;19.03;;;;;;;-4.06;62.77;100236.03;1663182;84;21456;-60
2022/02/05 03:03:51;;;;;;;33.97;20.40;;;;;;;-4.06;62.85;100230.83;1669142;84;21018;-58
2022/02/05 03:06:17;;;;;;;29.87;17.82;;;;;;;-4.03;62.77;100225.88;1671929;84;22136;-60
2022/02/05 03:08:47;;;;;;;34.90;18.98;;;;;;;-4.01;62.71;100224.01;1667171;84;21428;-58
2022/02/05 03:11:13;;;;;;;32.50;18.60;;;;;;;-4.03;62.80;100229.78;1665170;84;21018;-58
2022/02/05 03:13:40;;;;;;;30.23;19.97;;;;;;;-4.05;62.94;100223.39;1641965;86;21107;-57
2022/02/05 03:16:08;;;;;;;31.20;18.07;;;;;;;-4.02;62.97;100221.05;1643514;86;21101;-58
2022/02/05 03:21:08;;;;;;;36.00;19.47;;;;;;;-3.98;63.16;100225.12;1603470;86;21051;-57
2022/02/05 03:23:34;;;;;;;25.48;17.27;;;;;;;-4.02;63.15;100222.36;1656143;85;21026;-58
2022/02/05 03:26:01;;;;;;;29.52;16.85;;;;;;;-4.01;63.25;100213.16;1637617;86;21004;-58
2022/02/05 03:28:27;;;;;;;27.83;18.17;;;;;;;-4.00;63.37;100213.98;1642139;86;21083;-60
2022/02/05 03:30:54;;;;;;;28.45;16.60;;;;;;;-3.99;63.15;100210.45;1642738;86;21359;-58
2022/02/05 03:33:21;;;;;;;31.07;17.67;;;;;;;-4.35;63.39;100149.37;1637660;84;21552;-58
2022/02/05 03:35:47;;;;;;;27.10;16.53;;;;;;;-3.97;63.64;100209.41;1614473;87;21587;-59
2022/02/05 03:38:13;;;;;;;25.97;16.55;;;;;;;-3.96;63.36;100214.97;1619904;87;21141;-58
2022/02/05 03:40:39;;;;;;;30.97;19.52;;;;;;;-3.93;63.56;100210.05;1668509;84;21036;-59
2022/02/05 03:43:05;;;;;;;28.23;18.00;;;;;;;-3.87;63.53;100210.95;1667872;84;21005;-58
2022/02/05 03:45:33;;;;;;;32.40;19.70;;;;;;;-3.88;63.30;100208.44;1646921;85;21093;-59
2022/02/05 03:48:01;;;;;;;31.03;17.70;;;;;;;-3.92;63.50;100205.20;1626903;87;21536;-60
2022/02/05 03:50:28;;;;;;;26.63;17.67;;;;;;;-3.92;63.75;100207.80;1621077;87;21026;-58
2022/02/05 03:52:54;;;;;;;25.97;18.40;;;;;;;-3.88;63.60;100209.30;1622841;87;21078;-59
2022/02/05 03:55:20;;;;;;;29.57;18.75;;;;;;;-3.89;63.64;100205.48;1638898;86;21108;-58
2022/02/05 03:57:47;;;;;;;26.80;18.30;;;;;;;-3.96;63.87;100204.55;1612807;87;21159;-57
2022/02/05 04:00:15;;;;;;;27.67;17.02;;;;;;;-3.93;64.08;100204.84;1632663;86;21040;-59
2022/02/05 04:02:41;;;;;;;30.47;19.17;;;;;;;-3.92;63.98;100198.69;1650088;85;21006;-58
2022/02/05 04:05:09;;;;;;;29.50;18.62;;;;;;;-3.96;64.03;100199.83;1651108;85;21042;-58
2022/02/05 04:07:41;;;;;;;29.97;17.63;;;;;;;-4.01;64.57;100196.67;1653713;85;21467;-58
2022/02/05 04:10:09;;;;;;;22.93;16.17;;;;;;;-4.03;64.87;100197.23;1648314;85;21046;-58
2022/02/05 04:18:06;;;;;;;26.00;16.83;;;;;;;-3.91;64.79;100182.14;1655668;85;21522;-57
2022/02/05 04:20:34;;;;;;;27.65;16.75;;;;;;;-3.96;65.03;100191.53;1647184;85;20989;-57
2022/02/05 04:23:00;;;;;;;29.17;19.00;;;;;;;-3.99;65.31;100183.94;1630609;84;21111;-58
2022/02/05 04:25:26;;;;;;;26.48;16.70;;;;;;;-3.99;65.55;100180.52;1627146;87;21510;-59
2022/02/05 04:27:52;;;;;;;28.45;18.17;;;;;;;-3.95;65.62;100181.98;1625470;87;21581;-57
2022/02/05 04:30:18;;;;;;;39.73;20.17;;;;;;;-3.88;65.59;100179.80;1625603;87;21071;-59
2022/02/05 04:32:45;;;;;;;26.62;17.10;;;;;;;-3.94;65.51;100184.94;1603764;87;21071;-62
2022/02/05 04:35:11;;;;;;;34.90;18.50;;;;;;;-3.94;65.68;100177.98;1616046;86;21171;-58
2022/02/05 04:37:38;;;;;;;31.97;18.23;;;;;;;-3.97;66.00;100177.34;1632244;86;21195;-58
2022/02/05 04:42:46;;;;;;;25.50;17.23;;;;;;;-3.93;66.11;100189.22;1637921;86;21110;-58
2022/02/05 04:48:08;;;;;;;26.50;16.17;;;;;;;-3.89;66.17;100191.98;1636892;86;21063;-58
2022/02/05 05:03:30;;;;;;;26.17;17.37;;;;;;;-3.70;66.12;100176.47;1627994;86;21198;-58
2022/02/05 05:08:30;;;;;;;28.73;16.80;;;;;;;-3.67;65.91;100164.08;1632876;86;21076;-59
2022/02/05 05:21:25;;;;;;;25.37;15.83;;;;;;;-3.65;65.45;100160.08;1636027;86;21043;-59
2022/02/05 05:23:51;;;;;;;26.35;16.45;;;;;;;-3.61;65.48;100157.16;1631254;86;21038;-58
2022/02/05 05:26:17;;;;;;;23.25;16.07;;;;;;;-3.56;65.31;100160.74;1645932;86;21098;-59
2022/02/05 05:28:44;;;;;;;23.20;15.60;;;;;;;-3.55;65.06;100165.03;1645968;86;21620;-59
2022/02/05 05:31:10;;;;;;;26.52;16.35;;;;;;;-3.55;65.07;100168.47;1637338;86;21114;-59
2022/02/05 05:33:37;;;;;;;24.35;13.90;;;;;;;-3.54;65.23;100164.11;1636980;86;21112;-61
2022/02/05 05:36:05;;;;;;;24.90;15.67;;;;;;;-3.54;65.30;100162.81;1631984;86;21176;-60
2022/02/05 05:38:31;;;;;;;20.43;14.43;;;;;;;-3.49;65.27;100164.62;1638116;86;21119;-62
2022/02/05 05:40:57;;;;;;;17.90;12.15;;;;;;;-3.44;65.19;100163.84;1635941;86;21199;-59
2022/02/05 05:43:39;;;;;;;20.50;13.65;;;;;;;-3.43;65.11;100156.38;1637027;86;21030;-61
2022/02/05 05:46:14;;;;;;;21.60;14.27;;;;;;;-3.40;65.15;100164.48;1629470;86;21015;-60
2022/02/05 05:48:44;;;;;;;22.90;13.30;;;;;;;-3.36;65.22;100158.94;1629560;86;21066;-61
2022/02/05 05:51:00;;;;;;;20.57;12.60;;;;;;;-3.33;65.30;100154.84;1626877;86;21149;-60
2022/02/05 05:53:28;;;;;;;20.97;13.47;;;;;;;-3.37;65.34;100163.81;1625918;86;21034;-61
2022/02/05 05:55:58;;;;;;;20.90;13.30;;;;;;;-3.41;65.39;100150.62;1626800;86;21087;-60
2022/02/05 05:58:26;;;;;;;18.73;14.17;;;;;;;-3.39;65.54;100157.01;1624534;86;21114;-60
2022/02/05 06:00:52;;;;;;;21.27;13.23;;;;;;;-3.40;65.75;100161.88;1635141;86;21635;-63
2022/02/05 06:03:19;;;;;;;;;;;;;;;-3.36;65.86;100152.43;1633059;86;21153;-61
2022/02/05 06:05:46;;;;;;;22.03;14.80;;;;;;;-3.30;65.76;100147.27;1625030;86;20173;-65
2022/02/05 06:08:14;;;;;;;;;;;;;;;-3.31;65.89;100149.53;1637928;86;21083;-61
2022/02/05 06:10:41;;;;;;;;;;;;;;;-3.26;65.96;100147.90;1656573;85;20120;-60
2022/02/05 06:13:09;;;;;;;19.77;13.18;;;;;;;-3.27;66.08;100144.94;1645786;85;20169;-61
2022/02/05 06:15:41;;;;;;;21.43;13.43;;;;;;;-3.30;66.51;100138.14;1630942;87;21507;-73
2022/02/05 06:18:09;;;;;;;21.47;13.03;;;;;;;-3.27;66.85;100128.83;1627358;86;21042;-75
2022/02/05 06:20:38;;;;;;;21.33;14.87;;;;;;;-3.29;67.18;100126.80;1637712;86;21058;-73
2022/02/05 06:23:04;;;;;;;21.87;14.43;;;;;;;-3.26;67.35;100121.83;1619144;85;21028;-72
2022/02/05 06:25:35;;;;;;;24.82;15.53;;;;;;;-3.21;67.46;100128.39;1615727;87;21066;-71
2022/02/05 06:28:01;;;;;;;18.83;13.70;;;;;;;-3.21;67.49;100131.48;1635804;86;21021;-74
2022/02/05 06:30:28;;;;;;;22.02;15.23;;;;;;;-3.17;67.62;100114.69;1634399;86;21572;-71
2022/02/05 06:32:54;;;;;;;26.02;14.53;;;;;;;-3.15;67.81;100118.02;1637458;86;21091;-74
2022/02/05 06:35:21;;;;;;;24.70;15.70;;;;;;;-3.12;67.80;100130.86;1635963;86;21051;-72
2022/02/05 06:37:48;;;;;;;20.17;13.93;;;;;;;-3.09;67.98;100132.41;1635058;86;21056;-61
2022/02/05 06:40:14;;;;;;;21.33;13.65;;;;;;;-3.04;67.96;100125.94;1633058;86;21083;-61
2022/02/05 06:42:46;;;;;;;19.65;14.35;;;;;;;-3.00;67.99;100125.25;1637309;86;21068;-64
2022/02/05 06:45:14;;;;;;;22.87;14.77;;;;;;;-2.94;68.14;100133.50;1634261;86;21107;-64
2022/02/05 06:47:40;;;;;;;18.37;12.60;;;;;;;-2.95;68.25;100125.30;1638001;86;21591;-65
2022/02/05 06:50:07;;;;;;;21.93;14.87;;;;;;;-3.00;68.48;100110.91;1636775;86;20984;-65
2022/02/05 06:52:36;;;;;;;21.43;13.20;;;;;;;-2.95;68.41;100116.65;1634383;86;21774;-65
2022/02/05 06:55:03;;;;;;;21.83;14.00;;;;;;;-3.07;68.78;100097.48;1632770;86;21083;-63
2022/02/05 06:57:30;;;;;;;19.50;13.60;;;;;;;-2.96;68.93;100109.75;1637025;86;21039;-62
2022/02/05 06:59:56;;;;;;;19.60;13.15;;;;;;;-2.92;69.07;100115.59;1636683;86;21036;-63
2022/02/05 07:02:22;;;;;;;23.83;15.15;;;;;;;-2.89;69.15;100114.08;1635681;86;21600;-64
2022/02/05 07:04:49;;;;;;;25.13;14.57;;;;;;;-2.86;69.13;100112.55;1637026;86;21127;-64
2022/02/05 07:07:15;;;;;;;16.02;12.68;;;;;;;-2.84;69.30;100114.13;1634649;86;21021;-64
2022/02/05 07:09:42;;;;;;;19.60;13.32;;;;;;;-2.83;69.24;100119.69;1637694;86;21087;-65
2022/02/05 07:12:11;;;;;;;21.93;14.57;;;;;;;-2.90;69.40;100098.91;1637260;86;21584;-64
2022/02/05 07:14:56;;;;;;;22.10;15.10;;;;;;;-2.79;69.27;100113.78;1637450;86;21052;-64
2022/02/05 07:17:23;;;;;;;20.87;12.97;;;;;;;-2.78;69.67;100110.25;1628928;86;21010;-64
2022/02/05 07:22:32;;;;;;;23.93;15.07;;;;;;;-2.79;70.31;100100.30;1634489;86;21050;-64
2022/02/05 07:29:12;;;;;;;22.57;15.50;;;;;;;-2.78;70.57;100098.03;1633805;86;21028;-66
2022/02/05 07:30:09;;;;;;;18.03;12.17;;;;;;;-2.77;71.44;100101.02;1637396;86;21123;-66
2022/02/05 07:32:36;;;;;;;23.70;14.87;;;;;;;-2.74;71.71;100083.00;1637895;86;21153;-65
2022/02/05 07:35:03;;;;;;;22.70;12.33;;;;;;;-2.68;71.94;100079.11;1635585;86;21581;-65
2022/02/05 07:37:31;;;;;;;24.47;15.57;;;;;;;-2.66;72.44;100079.36;1635808;86;21046;-66
2022/02/05 07:39:57;;;;;;;18.97;14.77;;;;;;;-2.63;72.77;100080.45;1634338;86;21045;-66
2022/02/05 07:42:24;;;;;;;20.40;14.47;;;;;;;-2.63;72.95;100073.11;1629558;86;21038;-66
2022/02/05 07:44:52;;;;;;;20.90;13.97;;;;;;;-2.63;73.11;100062.19;1623621;86;21082;-65
2022/02/05 07:47:21;;;;;;;22.55;16.67;;;;;;;-2.58;73.50;100065.30;1624243;86;21577;-66
2022/02/05 07:49:47;;;;;;;26.47;14.63;;;;;;;-2.53;73.48;100064.96;1624400;86;21075;-66
2022/02/05 07:52:13;;;;;;;20.50;13.93;;;;;;;-2.52;73.52;100060.12;1635788;86;21023;-66
2022/02/05 07:54:40;;;;;;;20.75;14.28;;;;;;;-2.48;74.23;100060.25;1638109;86;21096;-65
2022/02/05 07:57:07;;;;;;;23.10;15.53;;;;;;;-2.41;73.98;100052.79;1649172;86;21213;-66
2022/02/05 07:59:36;;;;;;;21.70;15.60;;;;;;;-2.39;74.27;100059.59;1633256;86;21008;-65
2022/02/05 08:02:02;;;;;;;;;;;;;;;-2.39;74.38;100051.75;1638900;86;21134;-68
2022/02/05 08:04:28;;;;;;;21.93;14.53;;;;;;;-2.42;75.00;100051.14;1636666;86;20222;-66
2022/02/05 08:06:57;;;;;;;22.25;14.18;;;;;;;-2.43;75.17;100046.41;1641222;86;21481;-65
2022/02/05 08:09:42;;;;;;;25.37;15.13;;;;;;;-2.45;75.56;100040.91;1638630;86;21050;-65
2022/02/05 08:12:07;;;;;;;21.93;15.47;;;;;;;-2.48;75.94;100034.16;1633908;86;21029;-66
2022/02/05 08:14:34;;;;;;;22.53;15.83;;;;;;;-2.46;75.95;100031.44;1643833;86;21122;-67
2022/02/05 08:19:26;;;;;;;22.90;16.25;;;;;;;-2.51;76.93;100021.80;1637904;86;21024;-65
2022/02/05 08:21:52;;;;;;;21.10;14.70;;;;;;;-2.46;77.03;100019.69;1641795;86;21029;-64
2022/02/05 08:24:18;;;;;;;22.85;16.17;;;;;;;-2.48;77.46;100019.80;1637839;86;20999;-65
2022/02/05 08:26:45;;;;;;;19.55;13.30;;;;;;;-2.48;77.78;100017.66;1640339;86;21110;-66
2022/02/05 08:29:14;;;;;;;17.90;14.47;;;;;;;-2.45;77.88;99996.54;1637856;86;20990;-65
2022/02/05 08:31:42;;;;;;;21.27;14.30;;;;;;;-2.40;77.61;100001.78;1637360;86;21078;-67
2022/02/05 08:34:09;;;;;;;19.77;15.50;;;;;;;-2.37;77.70;100002.05;1642450;86;21050;-66
2022/02/05 08:36:47;;;;;;;19.07;12.60;;;;;;;-2.40;77.71;100001.78;1638891;86;21066;-65
2022/02/05 08:39:14;;;;;;;21.43;15.30;;;;;;;-2.36;77.87;99990.64;1649376;86;21083;-68
2022/02/05 08:41:42;;;;;;;27.73;17.03;;;;;;;-2.32;77.82;99995.99;1619008;86;21583;-67
2022/02/05 08:44:08;;;;;;;24.07;14.73;;;;;;;-2.31;77.84;99996.36;1637774;84;21074;-66
2022/02/05 08:46:35;;;;;;;19.77;13.75;;;;;;;-2.32;77.95;99996.47;1665591;85;21076;-67
2022/02/05 08:49:03;;;;;;;26.70;16.02;;;;;;;-2.25;77.95;100006.34;1656769;85;21059;-68
2022/02/05 08:51:32;;;;;;;21.83;15.80;;;;;;;-2.23;78.10;100006.23;1659986;85;21124;-67
2022/02/05 08:54:00;;;;;;;22.10;16.03;;;;;;;-2.18;78.02;99999.72;1653390;85;21214;-65
2022/02/05 08:56:27;;;;;;;24.27;16.10;;;;;;;-2.12;77.87;99993.69;1658752;84;21098;-66
2022/02/05 08:58:55;;;;;;;25.73;16.13;;;;;;;-2.14;77.99;99992.49;1666194;85;21032;-67
2022/02/05 09:04:11;;;;;;;24.57;16.30;;;;;;;-2.10;78.05;99995.71;1606203;88;21061;-67
2022/02/05 09:06:37;;;;;;;22.70;15.50;;;;;;;-2.00;77.87;99986.22;1666655;85;21131;-66
2022/02/05 09:09:13;;;;;;;22.20;16.93;;;;;;;-1.93;77.75;99979.59;1647806;85;21070;-67
2022/02/05 09:11:46;;;;;;;25.27;17.30;;;;;;;-1.85;77.70;99974.59;1644357;85;21080;-66
2022/02/05 09:14:15;;;;;;;24.93;16.93;;;;;;;-1.78;77.50;99970.57;1628795;86;21110;-65
2022/02/05 09:16:41;;;;;;;23.63;15.70;;;;;;;-1.75;77.28;99966.91;1636280;86;21617;-67
2022/02/05 09:19:08;;;;;;;22.97;16.97;;;;;;;-1.75;77.40;99947.31;1634898;86;21146;-67
2022/02/05 09:21:36;;;;;;;25.13;16.37;;;;;;;-1.66;77.32;99953.11;1628158;86;21062;-67
2022/02/05 09:24:05;;;;;;;25.12;17.20;;;;;;;-1.65;77.33;99948.73;1637989;86;21062;-65
2022/02/05 09:26:31;;;;;;;23.47;16.13;;;;;;;-1.59;77.29;99952.16;1633669;86;21027;-67
2022/02/05 09:29:03;;;;;;;24.73;16.83;;;;;;;-1.51;77.12;99940.63;1639189;86;21096;-67
2022/02/05 09:31:35;;;;;;;21.73;16.10;;;;;;;-1.45;76.98;99947.16;1631030;86;21330;-65
2022/02/05 09:34:01;;;;;;;21.27;14.30;;;;;;;-1.43;76.82;99936.95;1642828;84;21008;-68
2022/02/05 09:36:28;;;;;;;22.33;14.70;;;;;;;-1.42;76.82;99931.23;1661277;86;22151;-69
2022/02/05 09:38:56;;;;;;;22.17;15.45;;;;;;;-1.32;76.59;99933.46;1661598;85;21036;-67
2022/02/05 09:41:25;;;;;;;26.80;16.80;;;;;;;-1.32;76.64;99932.64;1662300;85;21092;-64
2022/02/05 09:43:51;;;;;;;25.03;16.90;;;;;;;-1.21;76.50;99930.00;1662808;86;21079;-66
2022/02/05 09:46:20;;;;;;;24.47;16.10;;;;;;;-1.20;76.34;99923.84;1662971;85;21030;-67
2022/02/05 09:48:50;;;;;;;23.50;14.60;;;;;;;-1.18;76.45;99917.52;1660703;86;21040;-81
2022/02/05 09:51:23;;;;;;;24.47;16.60;;;;;;;-1.13;76.32;99921.54;1659381;85;21618;-79
2022/02/05 09:53:53;;;;;;;21.37;15.00;;;;;;;-1.13;76.24;99908.46;1662021;85;21027;-77
2022/02/05 09:56:23;;;;;;;20.17;15.57;;;;;;;-1.10;76.36;99914.77;1659843;85;21635;-78
2022/02/05 09:58:50;;;;;;;21.37;15.57;;;;;;;-1.07;76.37;99905.38;1660942;85;21022;-77
2022/02/05 10:01:21;;;;;;;23.13;15.63;;;;;;;-1.03;76.29;99905.48;1660238;85;20989;-77
2022/02/05 10:03:49;;;;;;;24.47;16.53;;;;;;;-1.01;76.23;99906.17;1660748;85;21052;-78
2022/02/05 10:06:25;;;;;;;24.13;16.27;;;;;;;-0.91;76.06;99912.31;1653077;85;21090;-77
2022/02/05 10:09:11;;;;;;;23.27;15.20;;;;;;;-0.90;75.98;99915.78;1653199;86;21040;-79
2022/02/05 10:12:01;;;;;;;24.27;16.33;;;;;;;-0.88;75.95;99912.07;1658394;84;21767;-76
2022/02/05 10:14:33;;;;;;;26.67;15.93;;;;;;;-0.87;75.87;99909.79;1657660;85;21094;-76
2022/02/05 10:17:04;;;;;;;25.07;16.13;;;;;;;-0.86;75.79;99909.33;1660078;86;21030;-78
2022/02/05 10:19:53;;;;;;;25.77;17.43;;;;;;;-0.80;75.80;99899.18;1663225;85;21067;-80
2022/02/05 10:22:23;;;;;;;24.10;15.23;;;;;;;-0.73;75.77;99895.59;1646204;82;21059;-77
2022/02/05 10:24:52;;;;;;;26.03;18.27;;;;;;;-0.67;75.48;99898.19;1651237;85;21020;-78
2022/02/05 10:27:35;;;;;;;23.00;15.90;;;;;;;-0.61;75.43;99895.88;1661543;86;21617;-76
2022/02/05 10:30:13;;;;;;;23.53;16.70;;;;;;;-0.60;75.30;99892.31;1655862;85;21022;-76
2022/02/05 10:32:44;;;;;;;24.43;15.57;;;;;;;-0.56;75.23;99886.83;1654930;85;21726;-79
2022/02/05 10:35:33;;;;;;;29.40;17.73;;;;;;;-0.52;75.24;99873.83;1660144;85;21107;-75
2022/02/05 10:38:26;;;;;;;24.70;18.57;;;;;;;-0.54;75.18;99873.95;1661138;86;21021;-75
2022/02/05 10:41:00;;;;;;;24.27;16.13;;;;;;;-0.52;75.24;99871.21;1665469;85;21052;-76
2022/02/05 10:43:14;;;;;;;;;;;;;;;-0.49;75.37;99872.25;1662187;86;21032;-77
2022/02/05 10:45:47;;;;;;;25.70;15.40;;;;;;;-0.44;75.37;99870.08;1657384;83;20285;-76
2022/02/05 10:48:24;;;;;;;21.73;15.63;;;;;;;-0.43;75.29;99876.50;1663122;85;21143;-78
2022/02/05 10:50:53;;;;;;;25.67;17.97;;;;;;;-0.39;75.26;99866.60;1651568;85;21123;-72
2022/02/05 10:53:27;;;;;;;25.57;15.77;;;;;;;-0.32;75.27;99864.28;1660958;85;21031;-78
2022/02/05 11:07:13;;;;;;;25.23;17.43;;;;;;;-0.23;75.59;99830.30;1625453;88;21062;-73
2022/02/05 11:09:43;;;;;;;22.00;16.67;;;;;;;-0.18;75.65;99819.91;1628470;87;21607;-75
2022/02/05 11:19:00;;;;;;;28.30;17.97;;;;;;;0.05;75.36;99816.60;1783699;78;22300;-76
2022/02/05 11:21:30;;;;;;;25.30;16.57;;;;;;;0.03;75.29;99819.34;1749846;80;21343;-75
2022/02/05 11:24:04;;;;;;;25.83;16.90;;;;;;;0.03;75.56;99808.87;1695067;80;21004;-76
2022/02/05 11:26:33;;;;;;;21.23;15.00;;;;;;;0.00;75.57;99810.47;1685068;83;21122;-75
2022/02/05 11:29:03;;;;;;;24.67;17.97;;;;;;;0.02;75.86;99807.69;1687007;83;21032;-77
2022/02/05 11:31:36;;;;;;;23.57;17.53;;;;;;;0.02;75.92;99807.23;1682291;83;21036;-77
2022/02/05 11:34:38;;;;;;;22.50;15.90;;;;;;;0.06;76.13;99805.99;1682668;83;21102;-76
2022/02/05 11:37:08;;;;;;;23.13;17.40;;;;;;;0.06;76.33;99795.97;1687590;83;21086;-78
2022/02/05 11:39:53;;;;;;;22.17;16.53;;;;;;;0.03;76.66;99793.14;1687972;83;21097;-77
2022/02/05 11:42:34;;;;;;;24.23;15.10;;;;;;;0.06;76.63;99786.34;1671462;84;21018;-76
2022/02/05 11:45:28;;;;;;;20.57;15.00;;;;;;;0.06;76.91;99783.72;1672729;84;21181;-79
2022/02/05 11:47:57;;;;;;;22.73;16.07;;;;;;;0.01;77.13;99775.42;1691141;83;21106;-76
2022/02/05 11:50:26;;;;;;;24.80;15.50;;;;;;;0.01;77.23;99779.35;1691837;83;21028;-77
2022/02/05 11:52:54;;;;;;;25.43;18.13;;;;;;;0.03;77.35;99780.53;1693669;83;21062;-76
2022/02/05 11:55:38;;;;;;;21.37;15.97;;;;;;;0.09;77.39;99770.81;1683679;83;21521;-73
2022/02/05 11:58:09;;;;;;;25.50;16.67;;;;;;;0.12;77.21;99767.94;1708031;82;21039;-74
2022/02/05 12:00:55;;;;;;;22.93;17.47;;;;;;;0.16;77.25;99754.41;1712224;82;21069;-74
2022/02/05 12:03:34;;;;;;;23.80;16.23;;;;;;;0.22;77.08;99754.84;1715932;82;21124;-74
2022/02/05 12:06:08;;;;;;;26.93;19.60;;;;;;;0.23;76.85;99753.86;1713460;82;21170;-75
2022/02/05 12:08:39;;;;;;;21.20;16.30;;;;;;;0.23;76.65;99752.55;1697428;83;21105;-75
2022/02/05 12:11:29;;;;;;;25.73;16.73;;;;;;;0.22;76.85;99746.98;1710160;82;21873;-79
2022/02/05 12:14:17;;;;;;;24.43;16.90;;;;;;;0.26;76.55;99741.31;1694015;83;21041;-75
2022/02/05 12:17:10;;;;;;;22.43;17.17;;;;;;;0.29;76.50;99737.61;1699404;82;21054;-75
2022/02/05 12:20:01;;;;;;;23.47;17.20;;;;;;;0.26;76.27;99739.19;1713815;82;21102;-76
2022/02/05 12:23:09;;;;;;;26.33;18.47;;;;;;;0.26;76.39;99736.56;1708679;83;21089;-78
2022/02/05 12:25:29;;;;;;;29.83;18.70;;;;;;;0.25;76.09;99723.95;1699689;82;21678;-74
2022/02/05 12:27:56;;;;;;;29.12;19.20;;;;;;;0.27;76.17;99721.20;1697064;82;21084;-77
2022/02/05 12:30:36;;;;;;;27.48;18.82;;;;;;;0.26;76.02;99722.97;1708619;83;21082;-76
2022/02/05 12:33:05;;;;;;;30.03;18.23;;;;;;;0.29;75.86;99718.77;1722588;82;21109;-77
2022/02/05 12:35:33;;;;;;;28.37;18.30;;;;;;;0.29;75.81;99724.51;1711604;82;21062;-74
2022/02/05 12:38:03;;;;;;;29.47;18.20;;;;;;;0.34;75.84;99732.77;1707796;82;21094;-78
2022/02/05 12:40:30;;;;;;;26.23;17.80;;;;;;;0.39;75.65;99728.77;1708049;82;21097;-77
2022/02/05 12:42:58;;;;;;;28.23;18.17;;;;;;;0.48;75.19;99729.74;1707384;82;21050;-75
2022/02/05 12:45:51;;;;;;;24.13;17.70;;;;;;;0.47;74.71;99733.81;1708097;82;21206;-75
2022/02/05 12:48:12;;;;;;;23.98;18.00;;;;;;;0.46;74.72;99732.98;1696908;82;21054;-76
2022/02/05 12:50:41;;;;;;;24.52;17.20;;;;;;;0.49;74.55;99724.86;1719546;82;21581;-77
2022/02/05 12:53:09;;;;;;;23.47;17.63;;;;;;;0.01;74.79;99664.06;1707920;82;21097;-76
2022/02/05 12:55:44;;;;;;;25.93;19.13;;;;;;;0.42;74.84;99725.06;1712962;82;21517;-77
2022/02/05 12:58:05;;;;;;;28.17;18.23;;;;;;;0.39;74.99;99716.14;1700646;82;21581;-76
2022/02/05 13:00:32;;;;;;;26.10;18.70;;;;;;;0.42;74.88;99728.17;1711273;82;21050;-78
2022/02/05 13:02:57;;;;;;;24.37;18.17;;;;;;;0.38;75.05;99718.44;1701804;82;21569;-75
2022/02/05 13:05:34;;;;;;;25.32;18.80;;;;;;;0.42;74.92;99709.82;1710264;83;21049;-80
2022/02/05 13:08:01;;;;;;;27.22;19.42;;;;;;;0.40;74.94;99699.46;1709417;82;21405;-76
2022/02/05 13:10:46;;;;;;;23.35;16.17;;;;;;;0.34;74.96;99702.16;1702065;83;21129;-75
2022/02/05 13:13:13;;;;;;;25.73;18.30;;;;;;;0.35;75.14;99692.00;1696005;82;21541;-76
2022/02/05 13:15:39;;;;;;;25.10;16.80;;;;;;;0.37;75.10;99695.80;1697964;82;21081;-77
2022/02/05 13:18:19;;;;;;;23.57;18.10;;;;;;;0.32;75.14;99699.30;1694989;83;21165;-76
2022/02/05 13:34:25;;;;;;;30.10;20.00;;;;;;;0.48;74.68;99681.72;1681802;84;22238;-78
2022/02/05 13:42:02;;;;;;;25.23;17.93;;;;;;;0.41;74.88;99680.13;1683617;84;21069;-73
2022/02/05 13:44:42;;;;;;;23.70;16.57;;;;;;;0.47;74.65;99694.48;1674062;84;22580;-74
2022/02/05 13:47:16;;;;;;;22.07;16.87;;;;;;;0.49;74.56;99689.45;1681492;84;21010;-68
2022/02/05 13:49:42;;;;;;;26.53;18.53;;;;;;;0.56;74.43;99692.33;1679880;84;21048;-73
2022/02/05 13:52:14;;;;;;;28.52;18.52;;;;;;;0.57;74.47;99689.58;1673733;84;21054;-69
2022/02/05 13:54:43;;;;;;;23.50;16.93;;;;;;;0.63;74.28;99688.19;1681819;84;21050;-69
2022/02/05 13:57:15;;;;;;;25.93;18.60;;;;;;;0.67;74.26;99682.19;1680293;84;21035;-68
2022/02/05 13:59:41;;;;;;;23.43;17.97;;;;;;;0.70;74.11;99691.09;1672561;84;21057;-73
2022/02/05 14:02:15;;;;;;;24.57;17.65;;;;;;;0.75;74.05;99692.33;1673458;84;21007;-75
2022/02/05 14:04:42;;;;;;;25.27;17.17;;;;;;;0.75;74.12;99695.41;1670058;84;21096;-73
2022/02/05 14:07:08;;;;;;;24.07;18.70;;;;;;;0.74;74.22;99686.72;1680579;84;21535;-73
2022/02/05 14:09:36;;;;;;;22.65;17.75;;;;;;;0.74;74.31;99679.34;1681246;84;21106;-72
2022/02/05 14:12:18;;;;;;;28.03;17.33;;;;;;;0.74;74.46;99679.34;1682094;84;21531;-74
2022/02/05 14:15:02;;;;;;;27.67;18.77;;;;;;;0.71;74.66;99668.63;1672832;84;21106;-74